Terminal Aerodrome Forecast
Issued by NWS Birmingham, AL

Home | Current Version | Previous Version | Text Only | Print | Product List | Glossary On
Versions: 1 2 3 4 5 6 7 8 9 10 11 12 13 14 15 16 17 18
000
FTUS44 KBMX 071720
TAFBHM
TAF
KBHM 071720Z 0718/0818 34005KT P6SM OVC020
     FM080600 33004KT P6SM OVC050
     FM081500 35012G15KT P6SM OVC100=

USA.gov is the U.S. government's official web portal to all federal, state and local government web resources and services.